createdAt,value
2018-09-09T00:00:39.687Z,17.02
2018-09-09T00:03:09.391Z,16.99
2018-09-09T00:05:37.868Z,16.91
2018-09-09T00:08:06.483Z,16.86
2018-09-09T00:10:34.995Z,16.84
2018-09-09T00:13:04.173Z,16.80
2018-09-09T00:15:33.082Z,16.84
2018-09-09T00:18:01.614Z,16.86
2018-09-09T00:20:30.205Z,16.90
2018-09-09T00:22:58.747Z,16.88
2018-09-09T00:25:28.616Z,16.83
2018-09-09T00:27:57.613Z,16.79
2018-09-09T00:30:26.058Z,16.81
2018-09-09T00:32:55.007Z,16.81
2018-09-09T00:35:23.500Z,16.79
2018-09-09T00:37:52.114Z,16.76
2018-09-09T00:40:21.953Z,16.73
2018-09-09T00:42:50.400Z,16.67
2018-09-09T00:45:19.850Z,16.60
2018-09-09T00:47:49.548Z,16.57
2018-09-09T00:50:23.826Z,16.51
2018-09-09T00:52:58.255Z,16.46
2018-09-09T00:55:27.800Z,16.46
2018-09-09T00:57:57.626Z,16.51
2018-09-09T01:01:34.338Z,16.51
2018-09-09T01:04:02.829Z,16.39
2018-09-09T01:06:31.384Z,16.31
2018-09-09T01:09:00.010Z,16.27
2018-09-09T01:11:29.130Z,16.20
2018-09-09T01:13:58.162Z,16.22
2018-09-09T01:16:26.707Z,16.17
2018-09-09T01:18:55.277Z,16.17
2018-09-09T01:21:24.223Z,16.18
2018-09-09T01:23:53.297Z,16.18
2018-09-09T01:26:21.861Z,16.16
2018-09-09T01:28:51.697Z,16.12
2018-09-09T01:31:20.432Z,15.80
2018-09-09T01:33:49.629Z,15.98
2018-09-09T01:36:18.087Z,15.97
2018-09-09T01:38:46.808Z,15.92
2018-09-09T01:41:16.223Z,15.88
2018-09-09T01:43:44.919Z,15.86
2018-09-09T01:46:13.465Z,15.87
2018-09-09T01:48:42.047Z,15.84
2018-09-09T01:51:11.102Z,15.83
2018-09-09T01:53:40.253Z,15.84
2018-09-09T01:56:09.591Z,15.82
2018-09-09T01:58:39.399Z,15.82
2018-09-09T02:01:08.000Z,15.83
2018-09-09T02:03:36.621Z,15.79
2018-09-09T02:06:05.623Z,15.79
2018-09-09T02:08:34.068Z,15.78
2018-09-09T02:11:02.487Z,15.74
2018-09-09T02:13:32.511Z,15.61
2018-09-09T02:16:01.518Z,15.53
2018-09-09T02:18:29.955Z,15.51
2018-09-09T02:20:58.694Z,15.51
2018-09-09T02:23:27.641Z,15.51
2018-09-09T02:25:56.654Z,15.49
2018-09-09T02:28:25.863Z,15.49
2018-09-09T02:30:55.258Z,15.50
2018-09-09T02:33:24.821Z,15.53
2018-09-09T02:35:53.549Z,15.53
2018-09-09T02:38:22.559Z,15.47
2018-09-09T02:40:51.644Z,15.48
2018-09-09T02:43:20.085Z,15.41
2018-09-09T02:45:48.657Z,15.35
2018-09-09T02:48:17.195Z,15.33
2018-09-09T02:50:46.245Z,15.33
2018-09-09T02:53:15.418Z,15.32
2018-09-09T02:55:46.017Z,15.31
2018-09-09T02:58:16.253Z,15.30
2018-09-09T03:00:44.954Z,15.28
2018-09-09T03:03:13.379Z,15.29
2018-09-09T03:05:42.439Z,15.24
2018-09-09T03:08:10.869Z,15.24
2018-09-09T03:10:40.193Z,15.19
2018-09-09T03:13:08.804Z,15.17
2018-09-09T03:15:38.432Z,15.14
2018-09-09T03:18:06.852Z,15.09
2018-09-09T03:20:36.464Z,15.07
2018-09-09T03:23:04.945Z,14.99
2018-09-09T03:25:33.443Z,14.94
2018-09-09T03:28:02.692Z,14.89
2018-09-09T03:30:31.663Z,14.89
2018-09-09T03:33:00.233Z,14.82
2018-09-09T03:35:28.745Z,14.75
2018-09-09T03:37:58.400Z,14.72
2018-09-09T03:40:27.830Z,14.69
2018-09-09T03:43:01.432Z,14.59
2018-09-09T03:45:30.426Z,14.56
2018-09-09T03:47:59.108Z,14.55
2018-09-09T03:50:28.110Z,14.51
2018-09-09T03:52:57.166Z,14.53
2018-09-09T03:55:25.770Z,14.48
2018-09-09T03:57:54.436Z,14.44
2018-09-09T04:00:23.039Z,14.44
2018-09-09T04:02:51.456Z,14.38
2018-09-09T04:05:21.299Z,14.38
2018-09-09T04:07:51.336Z,14.40
2018-09-09T04:10:19.866Z,14.28
2018-09-09T04:12:50.046Z,14.23
2018-09-09T04:15:18.483Z,14.25
2018-09-09T04:17:47.763Z,14.30
2018-09-09T04:20:17.082Z,14.32
2018-09-09T04:22:45.608Z,14.35
2018-09-09T04:25:14.182Z,14.36
2018-09-09T04:27:42.670Z,14.32
2018-09-09T04:30:11.899Z,14.26
2018-09-09T04:32:40.485Z,14.22
2018-09-09T04:35:10.542Z,14.23
2018-09-09T04:37:39.047Z,14.17
2018-09-09T04:40:07.786Z,14.19
2018-09-09T04:42:36.212Z,14.17
2018-09-09T04:45:05.107Z,14.16
2018-09-09T04:47:33.647Z,14.18
2018-09-09T04:50:02.223Z,14.17
2018-09-09T04:52:30.784Z,14.09
2018-09-09T04:54:59.710Z,14.13
2018-09-09T04:57:28.401Z,14.14
2018-09-09T04:59:57.545Z,14.18
2018-09-09T05:02:26.782Z,14.22
2018-09-09T05:04:55.769Z,14.23
2018-09-09T05:07:25.501Z,14.25
2018-09-09T05:09:55.093Z,14.25
2018-09-09T05:12:23.699Z,14.24
2018-09-09T05:14:53.595Z,14.36
2018-09-09T05:17:22.354Z,14.38
2018-09-09T05:19:52.486Z,14.28
2018-09-09T05:22:20.885Z,14.41
2018-09-09T05:24:49.335Z,14.44
2018-09-09T05:27:17.724Z,14.49
2018-09-09T05:29:46.284Z,14.60
2018-09-09T05:32:14.747Z,14.65
2018-09-09T05:34:44.506Z,14.68
2018-09-09T05:37:13.028Z,14.76
2018-09-09T05:39:41.490Z,14.87
2018-09-09T05:42:09.989Z,15.00
2018-09-09T05:44:39.631Z,15.09
2018-09-09T05:47:09.257Z,15.07
2018-09-09T05:49:37.988Z,15.12
2018-09-09T05:52:07.239Z,15.06
2018-09-09T05:54:36.442Z,15.17
2018-09-09T05:57:05.351Z,15.25
2018-09-09T05:59:33.856Z,15.58
2018-09-09T06:02:03.126Z,16.73
2018-09-09T06:04:31.760Z,17.45
2018-09-09T06:07:01.119Z,17.25
2018-09-09T06:09:29.682Z,16.90
2018-09-09T06:11:58.440Z,16.68
2018-09-09T06:14:26.892Z,16.53
2018-09-09T06:16:55.652Z,16.52
2018-09-09T06:19:25.257Z,16.55
2018-09-09T06:21:54.945Z,16.53
2018-09-09T06:24:23.374Z,16.47
2018-09-09T06:26:52.526Z,16.45
2018-09-09T06:29:21.584Z,16.46
2018-09-09T06:31:50.228Z,16.47
2018-09-09T06:34:19.944Z,16.68
2018-09-09T06:36:49.142Z,16.80
2018-09-09T06:39:17.675Z,16.90
2018-09-09T06:41:47.111Z,17.06
2018-09-09T06:44:15.801Z,17.17
2018-09-09T06:46:44.303Z,17.44
2018-09-09T06:49:12.937Z,17.68
2018-09-09T06:51:42.568Z,17.96
2018-09-09T06:54:11.073Z,18.40
2018-09-09T06:56:40.276Z,19.14
2018-09-09T06:59:09.437Z,19.51
2018-09-09T07:01:38.118Z,19.99
2018-09-09T07:04:06.622Z,20.25
2018-09-09T07:06:35.088Z,20.47
2018-09-09T07:09:03.768Z,20.55
2018-09-09T07:11:32.492Z,20.25
2018-09-09T07:14:01.534Z,20.31
2018-09-09T07:16:30.084Z,20.50
2018-09-09T07:18:59.270Z,20.69
2018-09-09T07:21:27.665Z,21.08
2018-09-09T07:23:56.345Z,21.76
2018-09-09T07:26:25.457Z,22.80
2018-09-09T07:28:54.695Z,23.81
2018-09-09T07:31:23.460Z,24.67
2018-09-09T07:33:52.026Z,25.27
2018-09-09T07:36:20.953Z,25.86
2018-09-09T07:38:50.189Z,26.34
2018-09-09T07:41:18.750Z,26.50
2018-09-09T07:43:48.629Z,26.69
2018-09-09T07:46:17.549Z,25.74
2018-09-09T07:48:47.455Z,25.89
2018-09-09T07:51:16.025Z,26.51
2018-09-09T07:53:44.496Z,27.50
2018-09-09T07:56:12.964Z,28.59
2018-09-09T07:58:42.212Z,28.52
2018-09-09T08:01:10.745Z,28.68
2018-09-09T08:03:39.942Z,28.92
2018-09-09T08:06:09.423Z,29.05
2018-09-09T08:08:37.929Z,29.07
2018-09-09T08:11:07.228Z,28.99
2018-09-09T08:13:35.866Z,29.09
2018-09-09T08:16:05.590Z,29.92
2018-09-09T08:18:35.032Z,30.57
2018-09-09T08:21:04.432Z,30.71
2018-09-09T08:23:32.983Z,30.12
2018-09-09T08:26:02.537Z,30.15
2018-09-09T08:28:32.361Z,29.65
2018-09-09T08:31:00.882Z,29.01
2018-09-09T08:33:30.163Z,28.82
2018-09-09T08:35:58.669Z,29.42
2018-09-09T08:38:28.357Z,29.81
2018-09-09T08:40:58.790Z,30.24
2018-09-09T08:43:28.401Z,31.05
2018-09-09T08:45:58.457Z,31.72
2018-09-09T08:48:27.424Z,30.96
2018-09-09T08:50:56.136Z,30.96
2018-09-09T08:53:25.871Z,31.99
2018-09-09T08:55:54.794Z,32.23
2018-09-09T08:58:23.665Z,32.76
2018-09-09T09:00:52.338Z,33.49
2018-09-09T09:03:20.866Z,33.71
2018-09-09T09:05:49.426Z,33.62
2018-09-09T09:08:17.975Z,34.29
2018-09-09T09:10:46.528Z,33.96
2018-09-09T09:13:15.442Z,34.63
2018-09-09T09:15:44.247Z,35.56
2018-09-09T09:18:15.758Z,35.69
2018-09-09T09:20:44.406Z,35.60
2018-09-09T09:23:12.954Z,35.53
2018-09-09T09:25:56.167Z,35.04
2018-09-09T09:28:25.101Z,35.18
2018-09-09T09:30:54.136Z,34.98
2018-09-09T09:33:23.187Z,35.01
2018-09-09T09:35:53.763Z,35.58
2018-09-09T09:38:23.278Z,35.51
2018-09-09T09:40:52.472Z,35.27
2018-09-09T09:43:21.251Z,35.20
2018-09-09T09:45:49.964Z,34.38
2018-09-09T09:48:19.422Z,35.15
2018-09-09T09:50:48.986Z,35.88
2018-09-09T09:53:18.372Z,35.82
2018-09-09T09:55:48.114Z,35.16
2018-09-09T09:58:17.665Z,36.06
2018-09-09T10:00:52.046Z,36.59
2018-09-09T10:03:21.270Z,36.36
2018-09-09T10:05:50.391Z,36.99
2018-09-09T10:08:19.027Z,37.32
2018-09-09T10:10:47.605Z,38.24
2018-09-09T10:13:16.182Z,37.98
2018-09-09T10:15:45.468Z,37.96
2018-09-09T10:18:14.213Z,38.54
2018-09-09T10:20:43.460Z,38.56
2018-09-09T10:23:12.070Z,39.01
2018-09-09T10:25:42.013Z,38.62
2018-09-09T10:28:11.247Z,38.03
2018-09-09T10:30:41.796Z,38.30
2018-09-09T10:33:10.377Z,37.68
2018-09-09T10:35:39.543Z,36.89
2018-09-09T10:38:08.619Z,38.33
2018-09-09T10:40:37.673Z,39.56
2018-09-09T10:43:06.347Z,40.41
2018-09-09T10:45:35.162Z,40.32
2018-09-09T10:48:04.645Z,40.18
2018-09-09T10:50:34.101Z,40.15
2018-09-09T10:53:02.929Z,39.29
2018-09-09T10:55:32.315Z,38.97
2018-09-09T10:58:01.036Z,39.22
2018-09-09T11:00:29.560Z,39.16
2018-09-09T11:02:58.819Z,39.81
2018-09-09T11:05:27.340Z,39.83
2018-09-09T11:07:56.191Z,39.56
2018-09-09T11:10:24.776Z,39.25
2018-09-09T11:12:53.368Z,38.96
2018-09-09T11:15:21.978Z,37.84
2018-09-09T11:17:50.790Z,36.92
2018-09-09T11:20:20.004Z,36.83
2018-09-09T11:22:49.850Z,37.60
2018-09-09T11:25:19.112Z,38.44
2018-09-09T11:27:52.269Z,38.65
2018-09-09T11:30:21.577Z,38.54
2018-09-09T11:32:50.822Z,38.33
2018-09-09T11:35:19.967Z,38.21
2018-09-09T11:37:48.598Z,37.78
2018-09-09T11:40:17.363Z,36.71
2018-09-09T11:42:46.008Z,36.57
2018-09-09T11:45:15.154Z,36.83
2018-09-09T11:47:44.264Z,37.26
2018-09-09T11:50:12.703Z,37.88
2018-09-09T11:52:42.094Z,38.29
2018-09-09T11:55:10.767Z,38.43
2018-09-09T11:57:39.412Z,37.95
2018-09-09T12:00:08.554Z,37.57
2018-09-09T12:02:37.675Z,36.89
2018-09-09T12:05:06.349Z,36.14
2018-09-09T12:07:35.742Z,35.79
2018-09-09T12:10:04.332Z,35.25
2018-09-09T12:12:34.312Z,35.10
2018-09-09T12:15:03.234Z,34.96
2018-09-09T12:17:32.594Z,34.81
2018-09-09T12:20:05.553Z,35.76
2018-09-09T12:22:34.805Z,37.08
2018-09-09T12:25:03.368Z,38.39
2018-09-09T12:27:32.908Z,38.66
2018-09-09T12:30:01.429Z,39.21
2018-09-09T12:32:30.018Z,40.54
2018-09-09T12:34:59.484Z,41.52
2018-09-09T12:37:28.213Z,42.27
2018-09-09T12:39:58.010Z,42.66
2018-09-09T12:42:26.913Z,42.82
2018-09-09T12:45:00.698Z,41.73
2018-09-09T12:47:34.917Z,39.27
2018-09-09T12:50:04.923Z,40.21
2018-09-09T12:52:34.109Z,41.30
2018-09-09T12:55:03.720Z,40.49
2018-09-09T12:57:32.236Z,40.75
2018-09-09T13:00:02.155Z,41.30
2018-09-09T13:02:31.050Z,40.49
2018-09-09T13:04:59.848Z,41.03
2018-09-09T13:07:28.563Z,41.54
2018-09-09T13:09:57.233Z,40.96
2018-09-09T13:12:30.542Z,41.05
2018-09-09T13:14:59.313Z,40.83
2018-09-09T13:17:28.462Z,41.20
2018-09-09T13:19:57.292Z,41.45
2018-09-09T13:22:25.904Z,39.94
2018-09-09T13:24:54.547Z,39.27
2018-09-09T13:27:23.810Z,39.47
2018-09-09T13:29:52.533Z,39.28
2018-09-09T13:32:21.113Z,38.29
2018-09-09T13:34:50.279Z,37.35
2018-09-09T13:37:19.896Z,36.11
2018-09-09T13:39:48.667Z,35.52
2018-09-09T13:42:17.205Z,34.97
2018-09-09T13:44:46.973Z,35.09
2018-09-09T13:47:15.533Z,34.99
2018-09-09T13:49:44.026Z,34.86
2018-09-09T13:52:12.982Z,34.35
2018-09-09T13:54:41.765Z,34.25
2018-09-09T13:57:10.348Z,34.33
2018-09-09T13:59:39.160Z,34.34
2018-09-09T14:02:07.959Z,34.59
2018-09-09T14:04:37.391Z,34.97
2018-09-09T14:07:06.048Z,34.82
2018-09-09T14:09:35.522Z,34.34
2018-09-09T14:12:04.719Z,34.49
2018-09-09T14:14:33.462Z,34.68
2018-09-09T14:17:02.183Z,35.04
2018-09-09T14:19:31.448Z,34.72
2018-09-09T14:22:00.519Z,34.49
2018-09-09T14:24:29.187Z,34.79
2018-09-09T14:26:58.384Z,35.25
2018-09-09T14:29:26.977Z,35.93
2018-09-09T14:31:57.474Z,35.87
2018-09-09T14:34:26.283Z,36.18
2018-09-09T14:37:01.070Z,36.49
2018-09-09T14:39:30.263Z,36.36
2018-09-09T14:41:58.887Z,36.57
2018-09-09T14:44:29.245Z,36.62
2018-09-09T14:46:58.695Z,36.56
2018-09-09T14:49:27.324Z,36.46
2018-09-09T14:51:56.679Z,36.19
2018-09-09T14:54:25.466Z,35.80
2018-09-09T14:56:54.116Z,35.32
2018-09-09T14:59:22.737Z,35.35
2018-09-09T15:01:52.120Z,35.03
2018-09-09T15:04:21.488Z,34.89
2018-09-09T15:06:52.213Z,33.76
2018-09-09T15:09:21.648Z,33.85
2018-09-09T15:11:50.307Z,33.60
2018-09-09T15:14:18.806Z,33.36
2018-09-09T15:16:48.258Z,33.03
2018-09-09T15:19:16.909Z,32.54
2018-09-09T15:21:46.081Z,32.24
2018-09-09T15:24:15.075Z,32.12
2018-09-09T15:26:44.461Z,32.03
2018-09-09T15:29:13.176Z,31.85
2018-09-09T15:31:41.674Z,31.67
2018-09-09T15:34:10.959Z,31.39
2018-09-09T15:36:39.637Z,31.15
2018-09-09T15:39:09.299Z,31.10
2018-09-09T15:41:37.998Z,30.82
2018-09-09T15:44:06.545Z,30.65
2018-09-09T15:46:35.981Z,30.54
2018-09-09T15:49:04.592Z,30.31
2018-09-09T15:51:33.748Z,30.06
2018-09-09T15:54:02.758Z,30.07
2018-09-09T15:56:33.495Z,30.07
2018-09-09T15:59:02.841Z,29.93
2018-09-09T16:01:32.689Z,29.96
2018-09-09T16:04:01.184Z,29.93
2018-09-09T16:06:30.202Z,29.83
2018-09-09T16:08:58.756Z,29.79
2018-09-09T16:11:28.611Z,29.58
2018-09-09T16:13:58.018Z,29.51
2018-09-09T16:16:28.129Z,29.48
2018-09-09T16:18:56.846Z,29.36
2018-09-09T16:21:25.278Z,28.97
2018-09-09T16:23:54.185Z,28.94
2018-09-09T16:26:22.802Z,28.99
2018-09-09T16:28:52.388Z,28.79
2018-09-09T16:31:21.528Z,28.80
2018-09-09T16:33:50.436Z,28.67
2018-09-09T16:36:19.884Z,28.54
2018-09-09T16:38:48.620Z,28.52
2018-09-09T16:41:17.997Z,28.47
2018-09-09T16:43:46.664Z,28.49
2018-09-09T16:46:16.515Z,28.40
2018-09-09T16:48:46.737Z,28.34
2018-09-09T16:51:15.238Z,28.27
2018-09-09T16:53:43.998Z,28.25
2018-09-09T16:56:19.209Z,28.19
2018-09-09T16:58:47.899Z,28.12
2018-09-09T17:01:17.063Z,28.06
2018-09-09T17:03:45.875Z,27.98
2018-09-09T17:06:14.613Z,27.94
2018-09-09T17:08:43.176Z,27.83
2018-09-09T17:11:11.735Z,27.70
2018-09-09T17:13:40.299Z,27.62
2018-09-09T17:16:09.510Z,27.51
2018-09-09T17:18:38.252Z,27.44
2018-09-09T17:21:06.846Z,27.41
2018-09-09T17:23:36.493Z,27.26
2018-09-09T17:26:05.720Z,27.20
2018-09-09T17:28:34.469Z,27.17
2018-09-09T17:31:03.049Z,27.02
2018-09-09T17:33:31.672Z,26.89
2018-09-09T17:36:00.463Z,26.83
2018-09-09T17:38:29.050Z,26.75
2018-09-09T17:40:58.680Z,26.69
2018-09-09T17:43:27.161Z,26.64
2018-09-09T17:45:55.761Z,26.58
2018-09-09T17:48:24.305Z,26.54
2018-09-09T17:50:52.896Z,26.46
2018-09-09T17:53:21.947Z,26.39
2018-09-09T17:55:50.923Z,26.34
2018-09-09T17:58:19.492Z,26.28
2018-09-09T18:00:48.699Z,26.22
2018-09-09T18:03:17.361Z,26.08
2018-09-09T18:05:46.044Z,25.99
2018-09-09T18:08:14.722Z,25.90
2018-09-09T18:10:43.301Z,25.82
2018-09-09T18:13:11.896Z,25.78
2018-09-09T18:15:40.462Z,25.77
2018-09-09T18:18:09.058Z,25.71
2018-09-09T18:20:37.666Z,25.67
2018-09-09T18:23:06.152Z,25.59
2018-09-09T18:25:34.764Z,25.53
2018-09-09T18:28:04.147Z,25.46
2018-09-09T18:30:32.719Z,25.38
2018-09-09T18:33:01.511Z,25.31
2018-09-09T18:35:30.266Z,25.26
2018-09-09T18:37:58.825Z,25.12
2018-09-09T18:40:28.200Z,24.99
2018-09-09T18:42:56.823Z,24.88
2018-09-09T18:45:26.025Z,24.81
2018-09-09T18:47:54.694Z,24.75
2018-09-09T18:50:23.589Z,24.62
2018-09-09T18:52:52.334Z,24.57
2018-09-09T18:55:22.234Z,24.48
2018-09-09T18:57:51.344Z,24.41
2018-09-09T19:00:19.887Z,24.34
2018-09-09T19:02:49.154Z,24.27
2018-09-09T19:05:17.683Z,24.18
2018-09-09T19:07:46.984Z,24.01
2018-09-09T19:10:16.529Z,23.95
2018-09-09T19:12:45.373Z,23.86
2018-09-09T19:15:14.037Z,23.79
2018-09-09T19:17:44.192Z,23.65
2018-09-09T19:20:14.477Z,23.54
2018-09-09T19:22:43.059Z,23.48
2018-09-09T19:25:11.709Z,23.44
2018-09-09T19:27:40.551Z,23.40
2018-09-09T19:30:09.097Z,23.29
2018-09-09T19:32:37.661Z,23.22
2018-09-09T19:35:06.363Z,23.13
2018-09-09T19:37:35.095Z,23.08
2018-09-09T19:40:03.816Z,22.99
2018-09-09T19:42:37.816Z,22.96
2018-09-09T19:45:07.885Z,22.83
2018-09-09T19:47:36.903Z,22.71
2018-09-09T19:50:06.244Z,22.57
2018-09-09T19:52:35.903Z,22.49
2018-09-09T19:55:04.658Z,22.42
2018-09-09T19:57:33.407Z,22.30
2018-09-09T20:00:02.648Z,22.20
2018-09-09T20:02:31.202Z,22.16
2018-09-09T20:05:00.367Z,22.14
2018-09-09T20:07:29.475Z,22.07
2018-09-09T20:09:58.676Z,22.09
2018-09-09T20:12:27.336Z,21.94
2018-09-09T20:14:55.958Z,21.98
2018-09-09T20:17:24.428Z,21.88
2018-09-09T20:19:52.934Z,21.89
2018-09-09T20:22:22.045Z,21.86
2018-09-09T20:24:51.030Z,21.85
2018-09-09T20:27:19.540Z,21.80
2018-09-09T20:29:48.233Z,21.78
2018-09-09T20:32:16.807Z,21.75
2018-09-09T20:34:45.341Z,21.71
2018-09-09T20:37:14.034Z,21.67
2018-09-09T20:39:43.688Z,21.63
2018-09-09T20:42:12.190Z,21.55
2018-09-09T20:44:40.713Z,21.50
2018-09-09T20:47:09.277Z,21.42
2018-09-09T20:49:38.593Z,21.35
2018-09-09T20:52:07.219Z,21.31
2018-09-09T20:54:35.789Z,21.25
2018-09-09T20:57:04.512Z,21.18
2018-09-09T20:59:32.937Z,21.15
2018-09-09T21:02:03.815Z,21.08
2018-09-09T21:04:32.912Z,21.07
